Time;durP1;ratioP1;P1;durP2;ratioP2;P2;SDS_P1;SDS_P2;PMS_P1;PMS_P2;Temp;Humidity;BMP_temperature;BMP_pressure;BME280_temperature;BME280_humidity;BME280_pressure;Samples;Min_cycle;Max_cycle;Signal;HPM_P1;HPM_P2
2023/01/13 09:17:24;;;;;;;;;;;;;;;;;;;;;
2023/01/13 09:36:59;;;;;;;;;;;;;;;;;;;;;
2023/01/13 09:46:42;;;;;;;1.90;1.10;;;21.40;55.70;;;;;;5997779;23;20391;-88
2023/01/13 09:59:20;;;;;;;1.40;1.00;;;21.30;55.70;;;;;;5870505;24;20397;-90
2023/01/13 10:05:26;;;;;;;;;;;;;;;;;;;;;
2023/01/13 10:08:03;;;;;;;1.20;1.00;;;21.30;55.70;;;;;;5951756;24;20367;-89
2023/01/13 10:28:23;;;;;;;;;;;;;;;;;;;;;
2023/01/13 10:31:27;;;;;;;2.03;1.00;;;21.30;55.70;;;;;;5922159;24;20423;-88
2023/01/13 10:34:05;;;;;;;1.10;0.87;;;21.30;55.70;;;;;;5844976;24;20388;-86
2023/01/13 10:36:35;;;;;;;1.10;0.87;;;21.30;55.70;;;;;;5924408;24;20393;-87
2023/01/13 10:39:41;;;;;;;2.30;0.97;;;21.30;55.70;;;;;;5924417;24;20392;-88
2023/01/13 10:45:41;;;;;;;1.33;1.00;;;21.30;55.60;;;;;;5919399;24;20379;-89
2023/01/13 10:48:34;;;;;;;1.40;1.00;;;21.30;55.60;;;;;;5924171;24;20392;-88
2023/01/13 10:51:18;;;;;;;1.87;1.10;;;21.30;55.60;;;;;;5924353;24;20404;-90
2023/01/13 10:54:10;;;;;;;;;;;;;;;;;;;;;
2023/01/13 10:57:16;;;;;;;2.60;0.90;;;21.30;55.60;;;;;;5903985;24;20470;-92
2023/01/13 11:24:14;;;;;;;;;;;;;;;;;;;;;
2023/01/13 11:34:29;;;;;;;2.40;1.37;;;21.20;55.60;;;;;;6010188;23;20467;-92
2023/01/13 11:37:31;;;;;;;1.40;1.10;;;21.20;55.60;;;;;;5923715;24;20380;-93
2023/01/13 11:44:00;;;;;;;2.60;1.67;;;21.30;55.70;;;;;;5979931;24;20326;-92
2023/01/13 11:47:12;;;;;;;2.47;2.13;;;21.30;55.70;;;;;;5979097;24;20401;-94
2023/01/13 12:13:40;;;;;;;21.20;10.77;;;21.30;55.80;;;;;;5876337;24;20384;-88
2023/01/13 12:16:43;;;;;;;21.43;11.17;;;21.30;55.80;;;;;;5872027;24;20377;-87
2023/01/13 12:19:26;;;;;;;27.00;11.17;;;21.30;55.80;;;;;;5872047;24;20362;-87
2023/01/13 12:22:25;;;;;;;;;;;;;;;;;;;;;
2023/01/13 12:25:06;;;;;;;27.43;14.10;;;21.30;55.80;;;;;;5871864;24;20378;-87
2023/01/13 12:27:50;;;;;;;31.83;16.90;;;21.30;55.80;;;;;;5871716;24;20396;-88
2023/01/13 12:30:22;;;;;;;28.17;15.77;;;21.30;55.80;;;;;;5941950;24;20405;-87
2023/01/13 12:36:49;;;;;;;33.10;17.30;;;21.40;55.90;;;;;;5870941;24;20374;-86
2023/01/13 12:39:48;;;;;;;34.30;20.30;;;21.30;55.80;;;;;;5916146;24;20406;-88
2023/01/13 12:45:20;;;;;;;;;;;;;;;;;;;;;
2023/01/13 12:48:01;;;;;;;40.50;24.93;;;21.30;55.80;;;;;;5981130;24;20367;-87
2023/01/13 12:51:00;;;;;;;;;;;;;;;;;;;;;
2023/01/13 12:53:37;;;;;;;46.50;25.53;;;21.30;55.80;;;;;;5981226;24;20393;-86
2023/01/13 12:57:08;;;;;;;;;;;;;;;;;;;;;
2023/01/13 12:59:47;;;;;;;;;;;;;;;;;;;;;
2023/01/13 13:02:26;;;;;;;;;;;;;;;;;;;;;
2023/01/13 13:14:52;;;;;;;;;;;;;;;;;;;;;
2023/01/13 13:17:24;;;;;;;45.03;27.97;;;21.30;56.00;;;;;;6117301;23;20350;-88
2023/01/13 13:20:35;;;;;;;53.30;30.17;;;21.30;56.00;;;;;;6123344;23;20382;-89
2023/01/13 13:24:03;;;;;;;;;;;;;;;;;;;;;
2023/01/13 13:26:47;;;;;;;44.33;29.03;;;21.40;56.00;;;;;;6116835;23;20385;-88
2023/01/13 13:29:53;;;;;;;45.93;29.43;;;21.40;56.00;;;;;;6123063;23;20354;-88
2023/01/13 13:32:46;;;;;;;38.57;28.77;;;21.30;56.00;;;;;;6036851;23;20407;-88
2023/01/13 13:48:17;;;;;;;36.10;26.50;;;21.30;56.00;;;;;;6213213;23;20452;-89
2023/01/13 13:52:06;;;;;;;;;;;;;;;;;;;;;
2023/01/13 14:02:18;;;;;;;;;;;;;;;;;;;;;
2023/01/13 14:09:19;;;;;;;;;;;;;;;;;;;;;
2023/01/13 14:11:46;;;;;;;;;;;;;;;;;;;;;
2023/01/13 14:14:32;;;;;;;;;;;;;;;;;;;;;
2023/01/13 14:17:04;;;;;;;39.23;25.00;;;21.40;56.10;;;;;;5981045;24;20370;-84
2023/01/13 14:20:09;;;;;;;44.30;26.23;;;21.40;56.10;;;;;;5980374;24;20375;-86
2023/01/13 14:22:45;;;;;;;35.90;26.23;;;21.40;56.10;;;;;;5934420;24;20415;-85
2023/01/13 14:25:33;;;;;;;34.57;26.43;;;21.40;56.00;;;;;;5957815;24;20362;-85
2023/01/13 14:28:20;;;;;;;37.50;25.03;;;21.40;56.00;;;;;;5979902;24;20386;-85
2023/01/13 14:31:13;;;;;;;48.67;25.07;;;21.40;56.00;;;;;;5957092;24;20432;-85
2023/01/13 14:33:49;;;;;;;39.63;24.83;;;21.40;56.00;;;;;;5956672;24;20379;-85
2023/01/13 14:36:25;;;;;;;34.70;23.67;;;21.40;56.00;;;;;;5957114;24;20410;-85
2023/01/13 14:39:16;;;;;;;33.90;23.17;;;21.40;56.00;;;;;;5957064;24;20433;-85
2023/01/13 14:42:00;;;;;;;31.73;23.63;;;21.40;56.00;;;;;;6049169;23;20364;-84
2023/01/13 14:47:58;;;;;;;33.93;22.60;;;21.40;56.00;;;;;;6103303;23;20399;-85
2023/01/13 14:50:32;;;;;;;38.83;23.23;;;21.40;56.00;;;;;;6213361;23;20395;-85
2023/01/13 14:52:59;;;;;;;30.80;22.53;;;21.40;56.00;;;;;;6213232;23;20375;-85
2023/01/13 14:55:36;;;;;;;32.23;22.00;;;21.40;56.00;;;;;;6187386;23;20375;-84
2023/01/13 14:58:29;;;;;;;29.83;21.10;;;21.40;56.10;;;;;;6213054;23;20351;-84
2023/01/13 15:01:47;;;;;;;35.53;21.27;;;21.40;56.10;;;;;;6212830;23;20471;-84
2023/01/13 15:04:37;;;;;;;28.37;20.10;;;21.50;56.10;;;;;;6126454;23;20380;-84
2023/01/13 15:07:25;;;;;;;26.67;19.90;;;21.40;56.00;;;;;;6213239;23;20358;-84
2023/01/13 15:10:08;;;;;;;26.37;19.80;;;21.40;56.00;;;;;;6187663;23;20438;-84
2023/01/13 15:12:57;;;;;;;28.30;19.67;;;21.40;56.00;;;;;;6212966;23;20336;-83
2023/01/13 15:15:39;;;;;;;27.43;19.30;;;21.50;56.10;;;;;;6187778;23;20371;-83
2023/01/13 15:18:16;;;;;;;27.63;19.93;;;21.50;56.10;;;;;;6213198;23;20386;-84
2023/01/13 15:20:54;;;;;;;24.50;17.10;;;21.50;56.00;;;;;;6187584;23;20375;-84
2023/01/13 15:23:23;;;;;;;24.80;18.60;;;21.50;56.00;;;;;;6187441;23;20356;-84
2023/01/13 15:25:49;;;;;;;23.47;16.60;;;21.50;56.00;;;;;;6212834;23;20420;-84
2023/01/13 15:28:19;;;;;;;22.50;17.57;;;21.50;56.00;;;;;;6187103;23;20359;-84
2023/01/13 15:30:46;;;;;;;22.90;16.63;;;21.50;55.90;;;;;;6186843;23;20175;-85
2023/01/13 15:33:13;;;;;;;21.37;16.17;;;21.50;55.90;;;;;;6187424;23;20437;-84
2023/01/13 15:35:43;;;;;;;24.20;16.40;;;21.50;55.90;;;;;;6212661;23;20387;-84
2023/01/13 15:38:12;;;;;;;23.10;16.90;;;21.50;55.80;;;;;;6187022;23;20351;-83
2023/01/13 15:40:38;;;;;;;20.63;16.47;;;21.50;55.80;;;;;;6187204;23;20359;-83
2023/01/13 15:48:49;;;;;;;;;;;;;;;;;;;;;
2023/01/13 15:51:16;;;;;;;22.50;14.10;;;21.50;55.70;;;;;;6215153;23;20411;-83
2023/01/13 15:53:46;;;;;;;25.47;15.47;;;21.50;55.70;;;;;;6189141;23;20382;-83
2023/01/13 15:56:24;;;;;;;17.37;13.67;;;21.50;55.70;;;;;;6189365;23;20144;-85
2023/01/13 15:58:50;;;;;;;19.23;15.20;;;21.50;55.70;;;;;;6188939;23;20375;-84
2023/01/13 16:01:16;;;;;;;21.00;15.00;;;21.50;55.70;;;;;;6215217;23;20772;-84
2023/01/13 16:04:06;;;;;;;;;;;;;;;;;;;;;
2023/01/13 16:06:34;;;;;;;20.17;13.47;;;21.50;55.70;;;;;;6214933;23;20343;-84
2023/01/13 16:09:00;;;;;;;21.93;15.37;;;21.50;55.70;;;;;;6188668;23;20377;-83
2023/01/13 16:11:29;;;;;;;19.00;13.47;;;21.50;55.70;;;;;;6188403;23;20387;-84
2023/01/13 16:13:55;;;;;;;19.70;14.50;;;21.50;55.60;;;;;;6188335;23;20367;-84
2023/01/13 16:16:24;;;;;;;20.57;13.90;;;21.50;55.60;;;;;;6214715;23;20379;-85
2023/01/13 16:18:55;;;;;;;17.80;13.40;;;21.50;55.60;;;;;;6188585;23;20383;-86
2023/01/13 16:21:23;;;;;;;20.93;14.90;;;21.60;55.70;;;;;;6214736;23;20345;-85
2023/01/13 16:23:50;;;;;;;16.03;13.60;;;21.50;56.20;;;;;;6188806;23;20379;-85
2023/01/13 16:26:38;;;;;;;;;;;;;;;;;;;;;
2023/01/13 16:29:15;;;;;;;18.73;13.67;;;21.60;56.20;;;;;;6214268;23;20371;-85
2023/01/13 16:32:00;;;;;;;21.50;12.80;;;21.60;55.70;;;;;;6215145;23;20343;-85
2023/01/13 16:34:45;;;;;;;;;;;;;;;;;;;;;
2023/01/13 16:38:08;;;;;;;20.67;13.40;;;21.50;55.60;;;;;;6210641;23;20394;-87
2023/01/13 16:41:00;;;;;;;16.90;11.60;;;21.60;55.70;;;;;;6213621;23;20386;-86
2023/01/13 16:43:28;;;;;;;15.80;12.60;;;21.50;55.70;;;;;;6062252;23;20375;-86
2023/01/13 16:46:12;;;;;;;;;;;;;;;;;;;;;
2023/01/13 16:48:46;;;;;;;14.90;11.50;;;21.50;55.70;;;;;;6213826;23;20352;-87
2023/01/13 16:51:42;;;;;;;21.23;13.73;;;21.50;55.70;;;;;;6165083;23;20419;-87
2023/01/13 16:54:11;;;;;;;17.27;12.20;;;21.50;55.70;;;;;;6188236;23;20363;-86
2023/01/13 16:56:37;;;;;;;16.50;12.13;;;21.60;55.80;;;;;;6187587;23;20383;-87
2023/01/13 16:59:13;;;;;;;15.00;12.90;;;21.50;55.70;;;;;;6188414;23;20427;-87
2023/01/13 17:01:44;;;;;;;16.87;12.17;;;21.50;55.70;;;;;;6214124;23;20359;-89
2023/01/13 17:04:20;;;;;;;16.97;11.30;;;21.50;55.70;;;;;;6188306;23;20381;-89
2023/01/13 17:07:16;;;;;;;15.23;11.60;;;21.50;55.70;;;;;;6188206;23;20418;-88
2023/01/13 17:09:47;;;;;;;16.40;11.20;;;21.60;55.70;;;;;;6185243;23;20422;-87
2023/01/13 17:12:13;;;;;;;13.60;11.60;;;21.60;55.70;;;;;;6187933;23;20379;-88
2023/01/13 17:14:48;;;;;;;17.53;11.37;;;21.50;55.70;;;;;;6187896;23;20463;-88
2023/01/13 17:17:24;;;;;;;13.53;11.30;;;21.60;55.70;;;;;;6213436;23;20355;-87
2023/01/13 17:19:53;;;;;;;15.27;11.37;;;21.50;55.70;;;;;;6213396;23;20391;-87
2023/01/13 17:22:32;;;;;;;14.63;10.93;;;21.50;55.70;;;;;;6187682;23;20411;-87
2023/01/13 17:25:01;;;;;;;15.93;11.13;;;21.50;55.70;;;;;;6187901;23;20367;-88
2023/01/13 17:27:36;;;;;;;15.33;10.77;;;21.60;55.70;;;;;;6187868;23;20367;-88
2023/01/13 17:30:18;;;;;;;17.50;11.23;;;21.50;55.70;;;;;;6189596;23;20406;-89
2023/01/13 17:33:28;;;;;;;;;;;;;;;;;;;;;
2023/01/13 17:39:23;;;;;;;13.80;11.10;;;21.50;55.70;;;;;;6213958;23;20398;-90
2023/01/13 17:51:37;;;;;;;14.50;11.43;;;21.50;55.70;;;;;;6213563;23;20406;-90
2023/01/13 17:58:00;;;;;;;14.20;10.37;;;21.50;55.80;;;;;;6194051;23;20398;-88
2023/01/13 18:00:39;;;;;;;15.97;11.10;;;21.50;55.80;;;;;;6213305;23;20363;-88
2023/01/13 18:03:17;;;;;;;11.97;10.23;;;21.50;55.80;;;;;;6187826;23;20383;-88
2023/01/13 18:05:56;;;;;;;13.20;10.23;;;21.50;55.80;;;;;;6187659;23;20382;-88
2023/01/13 18:08:23;;;;;;;14.00;10.40;;;21.50;55.80;;;;;;6187054;23;20383;-89
2023/01/13 18:11:18;;;;;;;15.13;10.60;;;21.50;55.80;;;;;;6187462;23;20430;-88
2023/01/13 18:14:11;;;;;;;14.33;11.10;;;21.50;55.70;;;;;;6197855;23;20374;-88
2023/01/13 18:30:14;;;;;;;16.33;9.73;;;21.40;55.70;;;;;;6123879;23;20473;-89
2023/01/13 18:33:42;;;;;;;12.00;9.87;;;21.50;55.80;;;;;;6107661;23;20443;-88
2023/01/13 18:36:31;;;;;;;11.33;9.53;;;21.50;55.80;;;;;;6087214;23;20449;-88
2023/01/13 18:39:11;;;;;;;11.43;8.70;;;21.50;55.80;;;;;;6098780;23;20394;-88
2023/01/13 18:44:44;;;;;;;10.50;9.07;;;21.50;56.40;;;;;;6122990;23;20461;-87
2023/01/13 18:47:18;;;;;;;9.53;8.07;;;21.50;55.80;;;;;;6098925;23;20386;-88
2023/01/13 18:49:47;;;;;;;9.40;7.80;;;21.50;55.80;;;;;;6098626;23;20449;-88
2023/01/13 18:52:13;;;;;;;7.87;6.87;;;21.50;55.80;;;;;;6098400;23;20373;-87
2023/01/13 18:54:40;;;;;;;8.47;7.13;;;21.50;55.70;;;;;;6123206;23;20362;-87
2023/01/13 18:57:06;;;;;;;7.43;6.23;;;21.50;55.70;;;;;;6182676;23;20147;-88
2023/01/13 18:59:35;;;;;;;9.13;5.73;;;21.40;55.60;;;;;;6212638;23;20405;-88
2023/01/13 19:02:35;;;;;;;;;;;;;;;;;;;;;
2023/01/13 19:05:41;;;;;;;8.50;7.10;;;21.50;55.60;;;;;;6212419;23;20363;-88
2023/01/13 19:08:16;;;;;;;8.00;6.33;;;21.50;55.60;;;;;;6157391;23;20363;-90
2023/01/13 19:11:41;;;;;;;;;;;;;;;;;;;;;
2023/01/13 19:17:51;;;;;;;9.07;7.50;;;21.40;55.50;;;;;;6064685;23;20402;-88
2023/01/13 19:20:23;;;;;;;6.87;6.20;;;21.40;55.50;;;;;;6040453;23;20388;-88
2023/01/13 19:22:52;;;;;;;9.40;6.63;;;21.40;55.50;;;;;;6204635;23;20375;-88
2023/01/13 19:28:10;;;;;;;7.60;6.07;;;21.40;55.50;;;;;;6212683;23;20359;-90
2023/01/13 19:30:50;;;;;;;8.27;6.40;;;21.40;55.40;;;;;;6212693;23;20431;-90
2023/01/13 19:33:19;;;;;;;9.43;6.90;;;21.40;55.50;;;;;;6184678;23;20386;-89
2023/01/13 19:35:54;;;;;;;8.10;5.60;;;21.40;55.40;;;;;;6212127;23;20384;-89
2023/01/13 19:38:21;;;;;;;6.23;4.97;;;21.40;55.40;;;;;;6212297;23;20358;-88
2023/01/13 19:46:59;;;;;;;7.70;6.10;;;21.40;55.40;;;;;;6212383;23;20440;-89
2023/01/13 19:49:32;;;;;;;8.10;5.13;;;21.40;55.40;;;;;;6212285;23;20402;-90
2023/01/13 19:52:03;;;;;;;8.50;6.20;;;21.40;55.40;;;;;;6186161;23;20407;-89
2023/01/13 19:55:00;;;;;;;9.40;6.50;;;21.40;55.40;;;;;;6186698;23;20378;-89
2023/01/13 19:58:06;;;;;;;8.63;5.10;;;21.40;55.40;;;;;;6212544;23;20351;-89
2023/01/13 20:00:47;;;;;;;9.77;5.87;;;21.40;55.40;;;;;;6187064;23;20382;-89
2023/01/13 20:03:29;;;;;;;6.60;5.30;;;21.40;55.50;;;;;;6186721;23;20355;-89
2023/01/13 20:06:14;;;;;;;6.93;5.40;;;21.40;55.50;;;;;;6186772;23;20398;-89
2023/01/13 20:08:44;;;;;;;7.17;5.70;;;21.40;55.40;;;;;;6163969;23;20402;-89
2023/01/13 20:11:30;;;;;;;6.73;5.40;;;21.40;55.50;;;;;;6212237;23;20442;-88
2023/01/13 20:14:00;;;;;;;7.57;5.50;;;21.40;55.50;;;;;;6212058;23;20351;-89
2023/01/13 20:16:32;;;;;;;6.07;5.47;;;21.40;55.40;;;;;;6186718;23;20378;-89
2023/01/13 20:18:58;;;;;;;5.73;5.20;;;21.50;55.50;;;;;;6186734;23;20363;-89
2023/01/13 20:21:34;;;;;;;;;;;;;;;;;;;;;
2023/01/13 20:24:10;;;;;;;5.67;5.10;;;21.40;55.40;;;;;;6212890;23;20343;-89
2023/01/13 20:26:53;;;;;;;4.97;4.40;;;21.40;55.40;;;;;;6201348;23;20637;-89
2023/01/13 20:29:26;;;;;;;5.87;5.23;;;21.40;55.40;;;;;;6186887;23;20379;-89
2023/01/13 20:35:43;;;;;;;;;;;;;;;;;;;;;
2023/01/13 20:44:20;;;;;;;6.23;4.80;;;21.40;55.50;;;;;;6214141;23;20423;-90
2023/01/13 20:46:56;;;;;;;6.23;4.90;;;21.40;55.50;;;;;;6214071;23;20439;-91
2023/01/13 20:49:29;;;;;;;6.90;4.80;;;21.40;55.50;;;;;;6213724;23;20385;-91
2023/01/13 20:52:04;;;;;;;4.97;4.20;;;21.40;55.50;;;;;;6188730;23;20431;-90
2023/01/13 20:54:30;;;;;;;6.03;5.27;;;21.40;55.50;;;;;;6213800;23;20367;-91
2023/01/13 20:56:59;;;;;;;5.77;4.67;;;21.40;55.50;;;;;;6213590;23;20386;-91
2023/01/13 20:59:29;;;;;;;5.40;4.40;;;21.40;55.50;;;;;;6188177;23;20426;-91
2023/01/13 21:08:33;;;;;;;5.30;3.87;;;21.40;55.50;;;;;;6065385;23;20378;-90
2023/01/13 21:11:23;;;;;;;;;;;;;;;;;;;;;
2023/01/13 21:16:48;;;;;;;4.30;3.87;;;21.40;55.50;;;;;;6065565;23;20367;-89
2023/01/13 21:19:27;;;;;;;;;;;;;;;;;;;;;
2023/01/13 21:22:03;;;;;;;;;;;;;;;;;;;;;
2023/01/13 21:25:38;;;;;;;;;;;;;;;;;;;;;
2023/01/13 21:28:06;;;;;;;7.07;3.90;;;21.40;55.50;;;;;;6056718;23;20383;-91
2023/01/13 21:34:03;;;;;;;7.60;4.10;;;21.40;55.50;;;;;;6022373;23;20788;-90
2023/01/13 21:36:45;;;;;;;4.90;4.40;;;21.30;55.40;;;;;;6194476;23;20359;-90
2023/01/13 21:40:01;;;;;;;;;;;;;;;;;;;;;
2023/01/13 21:48:30;;;;;;;6.33;3.77;;;21.40;55.40;;;;;;6213209;23;20367;-91
2023/01/13 21:52:29;;;;;;;;;;;;;;;;;;;;;
2023/01/13 21:54:31;;;;;;;4.90;3.77;;;21.40;55.40;;;;;;6193187;23;20455;-91
2023/01/13 21:57:02;;;;;;;4.63;3.40;;;21.40;55.40;;;;;;6187443;23;20426;-91
2023/01/13 21:59:56;;;;;;;;;;;;;;;;;;;;;
2023/01/13 22:03:04;;;;;;;;;;;;;;;;;;;;;
2023/01/13 22:05:56;;;;;;;3.80;3.17;;;21.40;55.40;;;;;;6213077;23;20375;-91
2023/01/13 22:08:34;;;;;;;3.80;3.50;;;21.30;55.30;;;;;;6143857;23;20375;-90
2023/01/13 22:11:04;;;;;;;7.73;4.03;;;21.40;55.40;;;;;;6186761;23;20426;-90
2023/01/13 22:16:51;;;;;;;;;;;;;;;;;;;;;
2023/01/13 22:19:50;;;;;;;4.07;3.60;;;21.40;55.40;;;;;;6190900;23;20355;-90
2023/01/13 22:22:36;;;;;;;4.40;3.40;;;21.40;55.40;;;;;;6205491;23;20378;-91
2023/01/13 22:25:25;;;;;;;4.87;3.67;;;21.40;55.40;;;;;;6187328;23;20402;-92
2023/01/13 22:28:02;;;;;;;4.50;3.27;;;21.30;55.30;;;;;;6165577;23;20402;-92
2023/01/13 22:30:45;;;;;;;4.63;3.97;;;21.40;55.40;;;;;;6186813;23;20442;-91
2023/01/13 22:33:17;;;;;;;5.40;3.40;;;21.30;55.30;;;;;;6207591;23;20371;-92
2023/01/13 22:36:26;;;;;;;4.10;3.70;;;21.30;55.30;;;;;;6186960;23;20379;-91
2023/01/13 22:39:05;;;;;;;;;;;;;;;;;;;;;
2023/01/13 22:41:51;;;;;;;4.77;4.03;;;21.40;55.40;;;;;;6212084;23;20386;-91
2023/01/13 22:44:34;;;;;;;3.40;2.80;;;21.40;55.40;;;;;;6183007;23;20391;-91
2023/01/13 22:47:30;;;;;;;;;;;;;;;;;;;;;
2023/01/13 22:50:03;;;;;;;3.83;3.50;;;21.40;55.40;;;;;;6207780;23;20423;-91
2023/01/13 22:53:09;;;;;;;;;;;;;;;;;;;;;
2023/01/13 22:56:15;;;;;;;;;;;;;;;;;;;;;
2023/01/13 22:58:52;;;;;;;;;;;;;;;;;;;;;
2023/01/13 23:01:40;;;;;;;3.30;3.00;;;21.30;55.30;;;;;;6212158;23;20377;-90
2023/01/13 23:04:17;;;;;;;3.30;2.70;;;21.40;55.40;;;;;;6186237;23;20387;-90
2023/01/13 23:06:59;;;;;;;3.30;2.73;;;21.40;55.40;;;;;;6212084;23;20442;-90
2023/01/13 23:10:10;;;;;;;;;;;;;;;;;;;;;
2023/01/13 23:13:31;;;;;;;;;;;;;;;;;;;;;
2023/01/13 23:16:36;;;;;;;4.63;2.60;;;21.40;55.40;;;;;;6212185;23;20340;-90
2023/01/13 23:19:24;;;;;;;;;;;;;;;;;;;;;
2023/01/13 23:22:14;;;;;;;3.63;3.30;;;21.40;56.00;;;;;;6212380;23;20339;-91
2023/01/13 23:27:57;;;;;;;;;;;;;;;;;;;;;
2023/01/13 23:30:26;;;;;;;4.07;3.20;;;21.40;55.40;;;;;;6212142;23;20410;-91
2023/01/13 23:32:54;;;;;;;4.47;3.13;;;21.30;55.30;;;;;;6186490;23;20379;-91
2023/01/13 23:36:04;;;;;;;4.10;3.40;;;21.40;55.40;;;;;;6210532;23;20401;-91
2023/01/13 23:38:59;;;;;;;3.87;2.90;;;21.40;55.40;;;;;;6212002;23;20340;-91
2023/01/13 23:41:58;;;;;;;3.70;2.60;;;21.40;55.40;;;;;;6204330;23;20414;-91
2023/01/13 23:44:35;;;;;;;5.40;3.53;;;21.40;55.40;;;;;;6212163;23;20351;-91
2023/01/13 23:48:21;;;;;;;3.13;2.80;;;21.40;55.50;;;;;;6212284;23;20351;-90
2023/01/13 23:51:26;;;;;;;;;;;;;;;;;;;;;
2023/01/13 23:53:58;;;;;;;3.60;3.30;;;21.40;55.50;;;;;;6209201;23;20395;-90
